メインページ
METAR-TAF:

METAR-TAF

空港 :

オデッサ, ウクライナ

オデッサ国際空港

緯度: 46-26N, 経度: 030-46E, 海抜: 42m

現時点の気象観測

当レポートは18分前の23:00(UTC)に作成
の風 10kt
気温 16°C
湿度 72%
気圧 1017 hPa
視程10km以上
1,500メートル以下は雲なし、積乱雲なし

METAR: UKOO 272300Z 01005MPS CAVOK 16/11 Q1017 R34/090060 NOSIG

時間: 02:18 (23:18 UTC)

予報

当レポートは6時間6分前の17:12(UTC)に作成
予報は27日の 18時(UTC)から 28日の 18時(UTC)まで有効
北/北東の風 6kt
視程: 2100m
高度700ftの千切れ雲あり
高度2000ftの雲は散在している, 積乱雲.
弱いにわか雨, 靄
確率 40% :
27日の 18時(UTC)から 28日の 04時(UTC)まで一時的に
変向風 29kt
視程: 0400m
高度200ftの
激しい雷雨, 大雨, 雹
28日の 04時(UTC)から 28日の 05時(UTC)まで徐々に
北/北東の風 14kt、最大25ktの突風を伴う
視程: 6000m

TAF: UKOO 271712Z 2718/2818 02003MPS 2100 -SHRA BR BKN007 SCT020CB PROB40 TEMPO 2718/2804 VRB15MPS 0400 +TSRAGR VV002 BECMG 2804/2805 02007G13MPS 6000 NSW

4,000以上の空港の気象観測と天気予報(METAR報とTAF報)

利用可能な観測所は地図上に黄色い丸と赤い丸で示す。

丸の上にカーソルを重ねると観測所名を参照できる。

次にクリックすると気象観測と天気予報を参照できる。

マップの切り替え:黒色「×」印の緑ボタンをクリックして拡大、「-」印の緑ボタンをクリックして縮小、緑色の三角印をクリックして隣りの地図に切り替え


METAR-TAF: